sensor_id;sensor_type;location;lat;lon;timestamp;pressure;altitude;pressure_sealevel;temperature;humidity
33155;BME280;19511;42.682;23.332;2022-07-01T00:00:22;95124.91;;;21.79;100.00
33155;BME280;19511;42.682;23.332;2022-07-01T00:02:47;95123.16;;;21.67;100.00
33155;BME280;19511;42.682;23.332;2022-07-01T00:05:12;95119.59;;;21.66;100.00
33155;BME280;19511;42.682;23.332;2022-07-01T00:07:38;95128.88;;;21.58;100.00
33155;BME280;19511;42.682;23.332;2022-07-01T00:10:03;95125.78;;;21.56;100.00
33155;BME280;19511;42.682;23.332;2022-07-01T00:12:29;95132.84;;;21.66;100.00
33155;BME280;19511;42.682;23.332;2022-07-01T00:14:54;95125.69;;;21.65;100.00
33155;BME280;19511;42.682;23.332;2022-07-01T00:17:20;95139.47;;;21.63;100.00
33155;BME280;19511;42.682;23.332;2022-07-01T00:19:45;95134.59;;;21.48;100.00
33155;BME280;19511;42.682;23.332;2022-07-01T00:22:10;95145.53;;;21.46;100.00
33155;BME280;19511;42.682;23.332;2022-07-01T00:24:36;95141.66;;;21.44;100.00
33155;BME280;19511;42.682;23.332;2022-07-01T00:27:01;95147.16;;;21.38;100.00
33155;BME280;19511;42.682;23.332;2022-07-01T00:29:28;95149.88;;;21.32;100.00
33155;BME280;19511;42.682;23.332;2022-07-01T00:31:53;95158.63;;;21.34;100.00
33155;BME280;19511;42.682;23.332;2022-07-01T00:34:18;95148.13;;;21.35;100.00
33155;BME280;19511;42.682;23.332;2022-07-01T00:36:44;95142.69;;;21.31;100.00
33155;BME280;19511;42.682;23.332;2022-07-01T00:39:09;95136.00;;;21.29;100.00
33155;BME280;19511;42.682;23.332;2022-07-01T00:44:17;95143.41;;;21.41;100.00
33155;BME280;19511;42.682;23.332;2022-07-01T00:46:43;95157.91;;;21.25;100.00
33155;BME280;19511;42.682;23.332;2022-07-01T00:49:08;95153.38;;;21.27;100.00
33155;BME280;19511;42.682;23.332;2022-07-01T00:51:34;95157.25;;;21.30;100.00
33155;BME280;19511;42.682;23.332;2022-07-01T00:54:00;95154.31;;;21.24;100.00
33155;BME280;19511;42.682;23.332;2022-07-01T00:56:26;95154.63;;;21.26;100.00
33155;BME280;19511;42.682;23.332;2022-07-01T00:58:52;95155.81;;;21.10;100.00
33155;BME280;19511;42.682;23.332;2022-07-01T01:01:17;95152.50;;;20.97;100.00
33155;BME280;19511;42.682;23.332;2022-07-01T01:03:42;95157.41;;;20.87;100.00
33155;BME280;19511;42.682;23.332;2022-07-01T01:06:08;95157.94;;;20.67;100.00
33155;BME280;19511;42.682;23.332;2022-07-01T01:11:33;95153.28;;;20.39;100.00
33155;BME280;19511;42.682;23.332;2022-07-01T01:13:59;95159.75;;;20.21;100.00
33155;BME280;19511;42.682;23.332;2022-07-01T01:16:24;95162.28;;;20.10;100.00
33155;BME280;19511;42.682;23.332;2022-07-01T01:18:54;95157.97;;;20.00;100.00
33155;BME280;19511;42.682;23.332;2022-07-01T01:24:11;95152.50;;;19.96;100.00
33155;BME280;19511;42.682;23.332;2022-07-01T01:26:36;95155.16;;;20.00;100.00
33155;BME280;19511;42.682;23.332;2022-07-01T01:29:03;95154.22;;;19.94;100.00
33155;BME280;19511;42.682;23.332;2022-07-01T01:31:32;95156.41;;;19.89;100.00
33155;BME280;19511;42.682;23.332;2022-07-01T01:33:58;95171.41;;;19.86;100.00
33155;BME280;19511;42.682;23.332;2022-07-01T01:36:23;95166.22;;;19.94;100.00
33155;BME280;19511;42.682;23.332;2022-07-01T01:38:49;95171.97;;;20.09;100.00
33155;BME280;19511;42.682;23.332;2022-07-01T01:41:14;95168.56;;;19.96;100.00
33155;BME280;19511;42.682;23.332;2022-07-01T01:43:39;95173.91;;;19.66;100.00
33155;BME280;19511;42.682;23.332;2022-07-01T01:46:05;95177.03;;;19.49;100.00
33155;BME280;19511;42.682;23.332;2022-07-01T01:48:30;95174.41;;;19.46;100.00
33155;BME280;19511;42.682;23.332;2022-07-01T01:50:56;95176.75;;;19.38;100.00
33155;BME280;19511;42.682;23.332;2022-07-01T01:53:22;95168.31;;;19.29;100.00
33155;BME280;19511;42.682;23.332;2022-07-01T01:55:47;95172.22;;;19.22;100.00
33155;BME280;19511;42.682;23.332;2022-07-01T01:58:14;95176.72;;;19.19;100.00
33155;BME280;19511;42.682;23.332;2022-07-01T02:00:39;95168.16;;;19.23;100.00
33155;BME280;19511;42.682;23.332;2022-07-01T02:03:04;95179.84;;;19.21;100.00
33155;BME280;19511;42.682;23.332;2022-07-01T02:05:30;95177.03;;;19.31;100.00
33155;BME280;19511;42.682;23.332;2022-07-01T02:07:55;95179.69;;;19.34;100.00
33155;BME280;19511;42.682;23.332;2022-07-01T02:10:25;95182.19;;;19.23;100.00
33155;BME280;19511;42.682;23.332;2022-07-01T02:12:53;95187.66;;;19.17;100.00
33155;BME280;19511;42.682;23.332;2022-07-01T02:15:19;95187.31;;;19.15;100.00
33155;BME280;19511;42.682;23.332;2022-07-01T02:17:45;95200.41;;;19.09;100.00
33155;BME280;19511;42.682;23.332;2022-07-01T02:20:11;95194.31;;;19.01;100.00
33155;BME280;19511;42.682;23.332;2022-07-01T02:22:40;95191.81;;;18.94;100.00
33155;BME280;19511;42.682;23.332;2022-07-01T02:25:09;95198.00;;;18.89;100.00
33155;BME280;19511;42.682;23.332;2022-07-01T02:27:34;95205.31;;;18.86;100.00
33155;BME280;19511;42.682;23.332;2022-07-01T02:30:01;95202.38;;;18.81;100.00
33155;BME280;19511;42.682;23.332;2022-07-01T02:32:26;95200.94;;;18.76;100.00
33155;BME280;19511;42.682;23.332;2022-07-01T02:34:52;95204.06;;;18.78;100.00
33155;BME280;19511;42.682;23.332;2022-07-01T02:37:17;95217.88;;;18.72;100.00
33155;BME280;19511;42.682;23.332;2022-07-01T02:39:43;95207.75;;;18.66;100.00
33155;BME280;19511;42.682;23.332;2022-07-01T02:42:09;95215.84;;;18.64;100.00
33155;BME280;19511;42.682;23.332;2022-07-01T02:44:56;95215.22;;;18.59;100.00
33155;BME280;19511;42.682;23.332;2022-07-01T02:47:22;95216.44;;;18.58;100.00
33155;BME280;19511;42.682;23.332;2022-07-01T02:49:47;95226.88;;;18.58;100.00
33155;BME280;19511;42.682;23.332;2022-07-01T02:52:13;95219.22;;;18.49;100.00
33155;BME280;19511;42.682;23.332;2022-07-01T02:54:41;95226.53;;;18.47;100.00
33155;BME280;19511;42.682;23.332;2022-07-01T02:57:07;95227.59;;;18.40;100.00
33155;BME280;19511;42.682;23.332;2022-07-01T02:59:33;95236.31;;;18.42;100.00
33155;BME280;19511;42.682;23.332;2022-07-01T03:01:58;95240.03;;;18.39;100.00
33155;BME280;19511;42.682;23.332;2022-07-01T03:04:23;95240.94;;;18.36;100.00
33155;BME280;19511;42.682;23.332;2022-07-01T03:06:49;95234.91;;;18.37;100.00
33155;BME280;19511;42.682;23.332;2022-07-01T03:09:14;95241.59;;;18.40;100.00
33155;BME280;19511;42.682;23.332;2022-07-01T03:11:39;95255.59;;;18.40;100.00
33155;BME280;19511;42.682;23.332;2022-07-01T03:14:05;95256.84;;;18.39;100.00
33155;BME280;19511;42.682;23.332;2022-07-01T03:16:30;95261.34;;;18.36;100.00
33155;BME280;19511;42.682;23.332;2022-07-01T03:18:55;95261.81;;;18.35;100.00
33155;BME280;19511;42.682;23.332;2022-07-01T03:21:21;95261.34;;;18.36;100.00
33155;BME280;19511;42.682;23.332;2022-07-01T03:23:46;95257.75;;;18.36;100.00
33155;BME280;19511;42.682;23.332;2022-07-01T03:26:13;95255.41;;;18.34;100.00
33155;BME280;19511;42.682;23.332;2022-07-01T03:28:39;95255.28;;;18.38;100.00
33155;BME280;19511;42.682;23.332;2022-07-01T03:31:05;95261.19;;;18.40;100.00
33155;BME280;19511;42.682;23.332;2022-07-01T03:33:30;95264.31;;;18.42;100.00
33155;BME280;19511;42.682;23.332;2022-07-01T03:35:55;95259.03;;;18.44;100.00
33155;BME280;19511;42.682;23.332;2022-07-01T03:38:21;95267.16;;;18.51;100.00
33155;BME280;19511;42.682;23.332;2022-07-01T03:40:46;95263.31;;;18.58;100.00
33155;BME280;19511;42.682;23.332;2022-07-01T03:43:11;95256.28;;;18.63;100.00
33155;BME280;19511;42.682;23.332;2022-07-01T03:45:37;95263.66;;;18.69;100.00
33155;BME280;19511;42.682;23.332;2022-07-01T03:48:04;95259.16;;;18.72;100.00
33155;BME280;19511;42.682;23.332;2022-07-01T03:50:33;95259.97;;;18.82;100.00
33155;BME280;19511;42.682;23.332;2022-07-01T03:53:01;95266.41;;;18.91;100.00
33155;BME280;19511;42.682;23.332;2022-07-01T03:55:45;95256.00;;;19.01;100.00
33155;BME280;19511;42.682;23.332;2022-07-01T03:58:11;95267.69;;;19.09;100.00
33155;BME280;19511;42.682;23.332;2022-07-01T04:00:37;95253.53;;;19.13;100.00
33155;BME280;19511;42.682;23.332;2022-07-01T04:03:03;95257.91;;;19.23;100.00
33155;BME280;19511;42.682;23.332;2022-07-01T04:05:28;95262.88;;;19.28;100.00
33155;BME280;19511;42.682;23.332;2022-07-01T04:07:54;95256.38;;;19.31;100.00
33155;BME280;19511;42.682;23.332;2022-07-01T04:10:19;95261.66;;;19.38;100.00
33155;BME280;19511;42.682;23.332;2022-07-01T04:12:45;95262.91;;;19.47;100.00
33155;BME280;19511;42.682;23.332;2022-07-01T04:15:10;95269.78;;;19.64;100.00
33155;BME280;19511;42.682;23.332;2022-07-01T04:17:36;95275.22;;;19.96;100.00
33155;BME280;19511;42.682;23.332;2022-07-01T04:20:02;95270.09;;;20.55;100.00
33155;BME280;19511;42.682;23.332;2022-07-01T04:22:28;95274.00;;;21.49;100.00
33155;BME280;19511;42.682;23.332;2022-07-01T04:25:01;95265.16;;;22.35;100.00
33155;BME280;19511;42.682;23.332;2022-07-01T04:27:28;95263.03;;;22.60;100.00
33155;BME280;19511;42.682;23.332;2022-07-01T04:29:53;95266.22;;;23.18;100.00
33155;BME280;19511;42.682;23.332;2022-07-01T04:32:19;95256.34;;;23.28;100.00
33155;BME280;19511;42.682;23.332;2022-07-01T04:34:44;95254.38;;;22.63;100.00
33155;BME280;19511;42.682;23.332;2022-07-01T04:37:09;95264.19;;;22.38;100.00
33155;BME280;19511;42.682;23.332;2022-07-01T04:39:35;95260.47;;;22.32;100.00
33155;BME280;19511;42.682;23.332;2022-07-01T04:42:00;95262.81;;;22.18;100.00
33155;BME280;19511;42.682;23.332;2022-07-01T04:44:35;95273.47;;;21.84;100.00
33155;BME280;19511;42.682;23.332;2022-07-01T04:47:04;95265.13;;;22.05;100.00
33155;BME280;19511;42.682;23.332;2022-07-01T04:51:59;95262.81;;;22.04;100.00
33155;BME280;19511;42.682;23.332;2022-07-01T04:54:28;95264.38;;;21.65;100.00
33155;BME280;19511;42.682;23.332;2022-07-01T04:56:54;95267.72;;;21.54;100.00
33155;BME280;19511;42.682;23.332;2022-07-01T04:59:19;95271.09;;;21.44;100.00
33155;BME280;19511;42.682;23.332;2022-07-01T05:01:45;95261.16;;;21.58;100.00
33155;BME280;19511;42.682;23.332;2022-07-01T05:04:11;95266.63;;;21.61;100.00
33155;BME280;19511;42.682;23.332;2022-07-01T05:06:36;95259.84;;;21.68;100.00
33155;BME280;19511;42.682;23.332;2022-07-01T05:09:02;95266.19;;;21.53;100.00
33155;BME280;19511;42.682;23.332;2022-07-01T05:11:27;95265.06;;;21.36;100.00
33155;BME280;19511;42.682;23.332;2022-07-01T05:13:53;95269.31;;;21.56;100.00
33155;BME280;19511;42.682;23.332;2022-07-01T05:16:18;95265.09;;;21.75;100.00
33155;BME280;19511;42.682;23.332;2022-07-01T05:18:43;95266.84;;;21.88;100.00
33155;BME280;19511;42.682;23.332;2022-07-01T05:21:27;95261.16;;;21.97;100.00
33155;BME280;19511;42.682;23.332;2022-07-01T05:24:11;95265.72;;;21.94;100.00
33155;BME280;19511;42.682;23.332;2022-07-01T05:26:37;95262.81;;;22.04;100.00
33155;BME280;19511;42.682;23.332;2022-07-01T05:29:02;95270.97;;;22.16;100.00
33155;BME280;19511;42.682;23.332;2022-07-01T05:31:28;95267.38;;;22.01;100.00
33155;BME280;19511;42.682;23.332;2022-07-01T05:33:53;95265.94;;;22.06;100.00
33155;BME280;19511;42.682;23.332;2022-07-01T05:36:19;95270.59;;;22.24;100.00
33155;BME280;19511;42.682;23.332;2022-07-01T05:38:45;95273.50;;;22.29;100.00
33155;BME280;19511;42.682;23.332;2022-07-01T05:41:10;95266.72;;;22.36;100.00
33155;BME280;19511;42.682;23.332;2022-07-01T05:43:36;95266.63;;;22.45;100.00
33155;BME280;19511;42.682;23.332;2022-07-01T05:46:01;95267.41;;;22.46;100.00
33155;BME280;19511;42.682;23.332;2022-07-01T05:48:27;95256.13;;;22.46;100.00
33155;BME280;19511;42.682;23.332;2022-07-01T05:50:52;95260.13;;;22.54;100.00
33155;BME280;19511;42.682;23.332;2022-07-01T05:53:18;95262.72;;;22.73;100.00
33155;BME280;19511;42.682;23.332;2022-07-01T05:55:43;95262.59;;;22.82;100.00
33155;BME280;19511;42.682;23.332;2022-07-01T05:58:12;95263.06;;;22.95;100.00
33155;BME280;19511;42.682;23.332;2022-07-01T06:00:41;95257.31;;;23.05;100.00
33155;BME280;19511;42.682;23.332;2022-07-01T06:03:07;95259.91;;;23.08;100.00
33155;BME280;19511;42.682;23.332;2022-07-01T06:05:33;95262.59;;;22.97;100.00
33155;BME280;19511;42.682;23.332;2022-07-01T06:07:58;95257.78;;;23.03;100.00
33155;BME280;19511;42.682;23.332;2022-07-01T06:10:23;95263.91;;;23.17;100.00
33155;BME280;19511;42.682;23.332;2022-07-01T06:12:49;95259.38;;;23.25;100.00
33155;BME280;19511;42.682;23.332;2022-07-01T06:15:14;95263.28;;;23.27;100.00
33155;BME280;19511;42.682;23.332;2022-07-01T06:17:40;95265.72;;;23.20;100.00
33155;BME280;19511;42.682;23.332;2022-07-01T06:20:06;95267.09;;;23.09;100.00
33155;BME280;19511;42.682;23.332;2022-07-01T06:22:32;95264.81;;;23.28;100.00
33155;BME280;19511;42.682;23.332;2022-07-01T06:24:58;95263.00;;;23.46;100.00
33155;BME280;19511;42.682;23.332;2022-07-01T06:27:23;95272.13;;;23.56;100.00
33155;BME280;19511;42.682;23.332;2022-07-01T06:29:49;95276.50;;;23.57;100.00
33155;BME280;19511;42.682;23.332;2022-07-01T06:32:14;95268.88;;;23.63;100.00
33155;BME280;19511;42.682;23.332;2022-07-01T06:34:39;95266.75;;;23.58;100.00
33155;BME280;19511;42.682;23.332;2022-07-01T06:37:05;95273.38;;;23.75;100.00
33155;BME280;19511;42.682;23.332;2022-07-01T06:42:04;95266.59;;;23.88;100.00
33155;BME280;19511;42.682;23.332;2022-07-01T06:44:30;95264.81;;;23.90;100.00
33155;BME280;19511;42.682;23.332;2022-07-01T06:46:55;95264.94;;;23.96;100.00
33155;BME280;19511;42.682;23.332;2022-07-01T06:49:20;95260.66;;;24.06;100.00
33155;BME280;19511;42.682;23.332;2022-07-01T06:51:45;95262.31;;;24.19;100.00
33155;BME280;19511;42.682;23.332;2022-07-01T06:54:11;95265.25;;;24.30;100.00
33155;BME280;19511;42.682;23.332;2022-07-01T06:56:36;95260.53;;;24.48;100.00
33155;BME280;19511;42.682;23.332;2022-07-01T06:59:02;95253.97;;;24.62;100.00
33155;BME280;19511;42.682;23.332;2022-07-01T07:01:30;95267.78;;;24.54;100.00
33155;BME280;19511;42.682;23.332;2022-07-01T07:03:57;95264.78;;;24.64;100.00
33155;BME280;19511;42.682;23.332;2022-07-01T07:06:22;95264.09;;;24.74;100.00
33155;BME280;19511;42.682;23.332;2022-07-01T07:08:48;95267.75;;;24.81;100.00
33155;BME280;19511;42.682;23.332;2022-07-01T07:11:13;95268.66;;;24.98;100.00
33155;BME280;19511;42.682;23.332;2022-07-01T07:13:40;95265.97;;;24.83;100.00
33155;BME280;19511;42.682;23.332;2022-07-01T07:16:05;95269.84;;;24.86;100.00
33155;BME280;19511;42.682;23.332;2022-07-01T07:18:30;95257.34;;;24.98;100.00
33155;BME280;19511;42.682;23.332;2022-07-01T07:20:56;95269.06;;;25.23;100.00
33155;BME280;19511;42.682;23.332;2022-07-01T07:23:21;95261.13;;;25.27;100.00
33155;BME280;19511;42.682;23.332;2022-07-01T07:25:47;95263.97;;;25.33;100.00
33155;BME280;19511;42.682;23.332;2022-07-01T07:28:12;95264.59;;;25.42;100.00
33155;BME280;19511;42.682;23.332;2022-07-01T07:30:40;95266.94;;;25.50;100.00
33155;BME280;19511;42.682;23.332;2022-07-01T07:33:05;95257.72;;;25.61;100.00
33155;BME280;19511;42.682;23.332;2022-07-01T07:35:30;95260.59;;;25.72;100.00
33155;BME280;19511;42.682;23.332;2022-07-01T07:37:56;95257.00;;;25.71;100.00
33155;BME280;19511;42.682;23.332;2022-07-01T07:40:21;95253.59;;;25.67;100.00
33155;BME280;19511;42.682;23.332;2022-07-01T07:42:47;95258.53;;;25.72;100.00
33155;BME280;19511;42.682;23.332;2022-07-01T07:45:16;95257.31;;;25.96;100.00
33155;BME280;19511;42.682;23.332;2022-07-01T07:47:43;95251.47;;;26.17;100.00
33155;BME280;19511;42.682;23.332;2022-07-01T07:50:22;95258.97;;;26.31;100.00
33155;BME280;19511;42.682;23.332;2022-07-01T07:52:51;95247.91;;;26.50;100.00
33155;BME280;19511;42.682;23.332;2022-07-01T07:55:17;95249.97;;;26.55;100.00
33155;BME280;19511;42.682;23.332;2022-07-01T07:57:42;95254.88;;;26.66;100.00
33155;BME280;19511;42.682;23.332;2022-07-01T08:00:08;95251.50;;;26.62;100.00
33155;BME280;19511;42.682;23.332;2022-07-01T08:02:34;95240.19;;;26.73;100.00
33155;BME280;19511;42.682;23.332;2022-07-01T08:04:59;95245.09;;;26.79;100.00
33155;BME280;19511;42.682;23.332;2022-07-01T08:07:25;95247.94;;;26.90;100.00
33155;BME280;19511;42.682;23.332;2022-07-01T08:09:50;95236.59;;;26.96;100.00
33155;BME280;19511;42.682;23.332;2022-07-01T08:12:16;95235.28;;;27.02;100.00
33155;BME280;19511;42.682;23.332;2022-07-01T08:14:41;95233.41;;;27.22;100.00
33155;BME280;19511;42.682;23.332;2022-07-01T08:17:07;95229.25;;;27.46;100.00
33155;BME280;19511;42.682;23.332;2022-07-01T08:19:32;95225.63;;;27.51;100.00
33155;BME280;19511;42.682;23.332;2022-07-01T08:21:57;95220.09;;;27.76;100.00
33155;BME280;19511;42.682;23.332;2022-07-01T08:24:23;95218.56;;;27.69;100.00
33155;BME280;19511;42.682;23.332;2022-07-01T08:26:48;95226.28;;;27.80;100.00
33155;BME280;19511;42.682;23.332;2022-07-01T08:29:13;95214.91;;;27.74;100.00
33155;BME280;19511;42.682;23.332;2022-07-01T08:31:39;95218.50;;;27.80;100.00
33155;BME280;19511;42.682;23.332;2022-07-01T08:34:04;95212.00;;;27.91;100.00
33155;BME280;19511;42.682;23.332;2022-07-01T08:36:30;95213.25;;;27.96;100.00
33155;BME280;19511;42.682;23.332;2022-07-01T08:38:55;95208.47;;;28.21;100.00
33155;BME280;19511;42.682;23.332;2022-07-01T08:41:20;95211.03;;;28.25;100.00
33155;BME280;19511;42.682;23.332;2022-07-01T08:43:46;95213.31;;;28.32;100.00
33155;BME280;19511;42.682;23.332;2022-07-01T08:46:11;95207.66;;;28.62;100.00
33155;BME280;19511;42.682;23.332;2022-07-01T08:48:36;95209.34;;;28.77;100.00
33155;BME280;19511;42.682;23.332;2022-07-01T08:51:02;95208.25;;;28.86;100.00
33155;BME280;19511;42.682;23.332;2022-07-01T08:53:29;95211.09;;;28.86;100.00
33155;BME280;19511;42.682;23.332;2022-07-01T08:55:54;95214.47;;;28.84;100.00
33155;BME280;19511;42.682;23.332;2022-07-01T08:58:39;95214.00;;;28.80;100.00
33155;BME280;19511;42.682;23.332;2022-07-01T09:01:18;95203.56;;;28.88;100.00
33155;BME280;19511;42.682;23.332;2022-07-01T09:03:48;95207.72;;;29.12;100.00
33155;BME280;19511;42.682;23.332;2022-07-01T09:06:18;95213.13;;;29.15;100.00
33155;BME280;19511;42.682;23.332;2022-07-01T09:08:47;95216.56;;;29.08;98.45
33155;BME280;19511;42.682;23.332;2022-07-01T09:11:17;95213.66;;;29.14;100.00
33155;BME280;19511;42.682;23.332;2022-07-01T09:13:43;95214.53;;;29.34;99.68
33155;BME280;19511;42.682;23.332;2022-07-01T09:19:00;95205.00;;;29.50;100.00
33155;BME280;19511;42.682;23.332;2022-07-01T09:21:29;95204.88;;;29.61;90.76
33155;BME280;19511;42.682;23.332;2022-07-01T09:23:59;95201.19;;;29.67;90.87
33155;BME280;19511;42.682;23.332;2022-07-01T09:26:26;95206.78;;;29.53;92.99
33155;BME280;19511;42.682;23.332;2022-07-01T09:28:56;95208.06;;;29.52;98.36
33155;BME280;19511;42.682;23.332;2022-07-01T09:31:47;95204.41;;;29.57;96.63
33155;BME280;19511;42.682;23.332;2022-07-01T09:34:07;95195.63;;;29.74;95.60
33155;BME280;19511;42.682;23.332;2022-07-01T09:36:37;95198.41;;;29.80;92.99
33155;BME280;19511;42.682;23.332;2022-07-01T09:39:04;95192.56;;;29.91;93.87
33155;BME280;19511;42.682;23.332;2022-07-01T09:41:34;95192.41;;;30.03;86.53
33155;BME280;19511;42.682;23.332;2022-07-01T09:44:04;95189.25;;;30.06;87.51
33155;BME280;19511;42.682;23.332;2022-07-01T09:46:29;95188.72;;;30.08;88.17
33155;BME280;19511;42.682;23.332;2022-07-01T09:48:55;95187.19;;;30.07;90.52
33155;BME280;19511;42.682;23.332;2022-07-01T09:51:20;95183.84;;;30.03;93.68
33155;BME280;19511;42.682;23.332;2022-07-01T09:53:45;95188.25;;;30.04;87.43
33155;BME280;19511;42.682;23.332;2022-07-01T09:56:12;95173.97;;;29.85;85.73
33155;BME280;19511;42.682;23.332;2022-07-01T09:58:37;95178.41;;;30.05;88.19
33155;BME280;19511;42.682;23.332;2022-07-01T10:01:04;95174.28;;;30.19;90.63
33155;BME280;19511;42.682;23.332;2022-07-01T10:03:30;95172.38;;;30.41;81.48
33155;BME280;19511;42.682;23.332;2022-07-01T10:05:57;95168.06;;;30.53;81.65
33155;BME280;19511;42.682;23.332;2022-07-01T10:11:06;95173.94;;;30.74;66.38
33155;BME280;19511;42.682;23.332;2022-07-01T10:13:41;95171.06;;;30.42;64.00
33155;BME280;19511;42.682;23.332;2022-07-01T10:16:07;95170.28;;;30.60;65.41
33155;BME280;19511;42.682;23.332;2022-07-01T10:18:33;95161.41;;;30.77;64.23
33155;BME280;19511;42.682;23.332;2022-07-01T10:20:58;95164.44;;;30.99;67.17
33155;BME280;19511;42.682;23.332;2022-07-01T10:23:27;95165.09;;;31.05;71.61
33155;BME280;19511;42.682;23.332;2022-07-01T10:26:02;95159.84;;;31.09;68.41
33155;BME280;19511;42.682;23.332;2022-07-01T10:28:29;95158.63;;;31.18;65.46
33155;BME280;19511;42.682;23.332;2022-07-01T10:31:14;95156.31;;;31.43;73.79
33155;BME280;19511;42.682;23.332;2022-07-01T10:33:44;95148.19;;;31.20;71.86
33155;BME280;19511;42.682;23.332;2022-07-01T10:41:31;95143.56;;;31.17;56.93
33155;BME280;19511;42.682;23.332;2022-07-01T10:43:57;95127.97;;;31.32;66.71
33155;BME280;19511;42.682;23.332;2022-07-01T10:46:39;95126.53;;;31.38;65.78
33155;BME280;19511;42.682;23.332;2022-07-01T10:51:57;95123.09;;;31.53;59.48
33155;BME280;19511;42.682;23.332;2022-07-01T10:59:34;95116.06;;;31.68;59.86
33155;BME280;19511;42.682;23.332;2022-07-01T11:02:08;95124.75;;;31.49;59.67
33155;BME280;19511;42.682;23.332;2022-07-01T11:04:37;95116.97;;;31.49;67.74
33155;BME280;19511;42.682;23.332;2022-07-01T11:07:03;95118.22;;;31.62;67.27
33155;BME280;19511;42.682;23.332;2022-07-01T11:09:28;95109.53;;;31.81;62.30
33155;BME280;19511;42.682;23.332;2022-07-01T11:11:54;95108.03;;;32.01;67.93
33155;BME280;19511;42.682;23.332;2022-07-01T11:14:19;95101.25;;;31.90;61.33
33155;BME280;19511;42.682;23.332;2022-07-01T11:16:44;95111.22;;;31.97;68.72
33155;BME280;19511;42.682;23.332;2022-07-01T11:19:10;95111.22;;;31.97;66.23
33155;BME280;19511;42.682;23.332;2022-07-01T11:21:35;95111.75;;;31.74;61.00
33155;BME280;19511;42.682;23.332;2022-07-01T11:24:00;95080.41;;;31.69;61.81
33155;BME280;19511;42.682;23.332;2022-07-01T11:26:26;95107.81;;;31.99;53.32
33155;BME280;19511;42.682;23.332;2022-07-01T11:31:26;95097.50;;;32.17;55.50
33155;BME280;19511;42.682;23.332;2022-07-01T11:33:51;95103.13;;;32.22;59.49
33155;BME280;19511;42.682;23.332;2022-07-01T11:36:17;95103.91;;;32.23;57.10
33155;BME280;19511;42.682;23.332;2022-07-01T11:39:00;95105.78;;;32.20;55.01
33155;BME280;19511;42.682;23.332;2022-07-01T11:41:44;95101.13;;;32.17;48.23
33155;BME280;19511;42.682;23.332;2022-07-01T11:44:10;95094.88;;;32.40;41.25
33155;BME280;19511;42.682;23.332;2022-07-01T11:46:35;95093.34;;;32.39;47.99
33155;BME280;19511;42.682;23.332;2022-07-01T11:49:00;95084.28;;;32.48;44.32
33155;BME280;19511;42.682;23.332;2022-07-01T11:51:35;95080.06;;;32.49;47.43
33155;BME280;19511;42.682;23.332;2022-07-01T11:54:01;95081.53;;;32.43;48.08
33155;BME280;19511;42.682;23.332;2022-07-01T11:56:30;95071.34;;;32.55;49.46
33155;BME280;19511;42.682;23.332;2022-07-01T11:58:56;95079.06;;;32.68;54.12
33155;BME280;19511;42.682;23.332;2022-07-01T12:03:47;95078.56;;;32.77;55.90
33155;BME280;19511;42.682;23.332;2022-07-01T12:06:12;95069.28;;;32.84;57.95
33155;BME280;19511;42.682;23.332;2022-07-01T12:08:38;95070.38;;;32.74;62.48
33155;BME280;19511;42.682;23.332;2022-07-01T12:11:04;95068.25;;;32.53;64.42
33155;BME280;19511;42.682;23.332;2022-07-01T12:13:34;95065.22;;;32.80;62.78
33155;BME280;19511;42.682;23.332;2022-07-01T12:16:07;95068.72;;;33.22;58.02
33155;BME280;19511;42.682;23.332;2022-07-01T12:18:33;95061.72;;;33.02;53.47
33155;BME280;19511;42.682;23.332;2022-07-01T12:21:02;95057.84;;;32.63;56.83
33155;BME280;19511;42.682;23.332;2022-07-01T12:23:28;95057.25;;;32.57;61.23
33155;BME280;19511;42.682;23.332;2022-07-01T12:25:54;95055.25;;;32.23;60.96
33155;BME280;19511;42.682;23.332;2022-07-01T12:28:25;95059.34;;;32.14;61.35
33155;BME280;19511;42.682;23.332;2022-07-01T12:31:01;95056.59;;;31.87;59.78
33155;BME280;19511;42.682;23.332;2022-07-01T12:33:27;95059.31;;;31.58;70.73
33155;BME280;19511;42.682;23.332;2022-07-01T12:35:53;95062.34;;;31.39;75.14
33155;BME280;19511;42.682;23.332;2022-07-01T12:38:19;95070.81;;;31.32;73.96
33155;BME280;19511;42.682;23.332;2022-07-01T12:40:44;95063.41;;;31.50;62.43
33155;BME280;19511;42.682;23.332;2022-07-01T12:43:28;95046.25;;;31.84;46.26
33155;BME280;19511;42.682;23.332;2022-07-01T12:45:55;95050.50;;;32.26;62.14
33155;BME280;19511;42.682;23.332;2022-07-01T12:48:22;95046.09;;;32.46;48.15
33155;BME280;19511;42.682;23.332;2022-07-01T12:50:48;95043.31;;;32.61;55.98
33155;BME280;19511;42.682;23.332;2022-07-01T12:53:20;95037.97;;;32.86;61.04
33155;BME280;19511;42.682;23.332;2022-07-01T12:55:47;95043.06;;;33.09;55.79
33155;BME280;19511;42.682;23.332;2022-07-01T12:58:17;95047.41;;;33.02;65.06
33155;BME280;19511;42.682;23.332;2022-07-01T13:00:46;95038.38;;;32.91;69.92
33155;BME280;19511;42.682;23.332;2022-07-01T13:03:12;95039.53;;;32.87;73.86
33155;BME280;19511;42.682;23.332;2022-07-01T13:05:38;95058.41;;;32.62;75.96
33155;BME280;19511;42.682;23.332;2022-07-01T13:08:07;95054.44;;;32.65;77.80
33155;BME280;19511;42.682;23.332;2022-07-01T13:10:36;95045.66;;;32.42;80.05
33155;BME280;19511;42.682;23.332;2022-07-01T13:13:05;95048.38;;;32.05;80.59
33155;BME280;19511;42.682;23.332;2022-07-01T13:15:30;95045.22;;;32.16;77.95
33155;BME280;19511;42.682;23.332;2022-07-01T13:17:56;95042.34;;;32.59;79.00